首页
METAR-TAF:

METAR-TAF

机场 :

富兰克林, 宾夕法尼亚州, 美国

纬度: 41-23N, 经度: 079-52W, 海拔: 469米

当前天气观测

该预报发布于45分钟前的15:56 UTC
风速8节,风向西转西南
温度 25°C
湿度 69%
气压 1020 hPa
能見度: 16.1公里
少量云层高于12000英尺

METAR: KFKL 261556Z AUTO 24008KT 10SM FEW120 25/19 A3011 RMK AO2 SLP189 T02500189

时间: 12:41 (16:41 UTC)

预报

该预报发布于5小时和18分钟前的11:23 UTC
预报有效从26日的 12点(UTC)到 27日的 12点(UTC)
风速6节,风向西南
能見度: 10公里
散云层高于6000英尺
从 26日的 1700点(UTC)
风速12节,风向西南,有时为18节阵风
能見度: 10公里
多云层高于4000英尺
从 27日的 0100点(UTC)
风速5节,风向多变
能見度: 10公里
散云层高于4000英尺

TAF: KFKL 261123Z 2612/2712 22006KT P6SM SCT060 FM261700 23012G18KT P6SM BKN040 FM270100 VRB05KT P6SM SCT040

超过4000个机场的气象观测和天气预报(METAR&TAF报告)。

可查询的气象台以黄色和红色小点在地图上表示。

将鼠标移到小点上方,可查看气象台名称。

然后点击查看天气观测和预报。

如需切换地图:点击带黑十字的绿色按钮放大地图;点击带横线的绿色按钮缩小地图;或者点击绿色箭头查看邻近地区的地图。


METAR-TAF: